createdAt,value
2022-09-01T00:00:29.144Z,100.00
2022-09-01T00:02:57.496Z,100.00
2022-09-01T00:05:25.836Z,100.00
2022-09-01T00:07:53.986Z,100.00
2022-09-01T00:10:22.414Z,100.00
2022-09-01T00:12:50.360Z,100.00
2022-09-01T00:15:18.630Z,100.00
2022-09-01T00:17:46.804Z,100.00
2022-09-01T00:20:20.083Z,100.00
2022-09-01T00:22:48.744Z,100.00
2022-09-01T00:25:19.185Z,100.00
2022-09-01T00:27:48.400Z,100.00
2022-09-01T00:30:16.253Z,100.00
2022-09-01T00:32:46.859Z,100.00
2022-09-01T00:35:18.552Z,100.00
2022-09-01T00:37:46.521Z,100.00
2022-09-01T00:40:16.916Z,100.00
2022-09-01T00:42:45.315Z,100.00
2022-09-01T00:45:13.570Z,100.00
2022-09-01T00:47:42.293Z,100.00
2022-09-01T00:50:12.062Z,100.00
2022-09-01T00:52:53.517Z,100.00
2022-09-01T00:55:32.630Z,100.00
2022-09-01T00:58:02.363Z,100.00
2022-09-01T01:00:33.702Z,100.00
2022-09-01T01:03:02.051Z,100.00
2022-09-01T01:05:40.432Z,100.00
2022-09-01T01:08:11.783Z,100.00
2022-09-01T01:10:42.458Z,100.00
2022-09-01T01:13:16.186Z,100.00
2022-09-01T01:15:45.025Z,100.00
2022-09-01T01:18:18.797Z,100.00
2022-09-01T01:21:27.588Z,100.00
2022-09-01T01:24:23.902Z,100.00
2022-09-01T01:26:52.871Z,100.00
2022-09-01T01:29:21.986Z,100.00
2022-09-01T01:31:54.046Z,100.00
2022-09-01T01:34:23.466Z,100.00
2022-09-01T01:36:52.632Z,100.00
2022-09-01T01:39:28.821Z,100.00
2022-09-01T01:41:58.816Z,100.00
2022-09-01T01:44:28.405Z,100.00
2022-09-01T01:47:03.907Z,100.00
2022-09-01T01:49:32.290Z,100.00
2022-09-01T01:52:01.292Z,100.00
2022-09-01T01:54:33.426Z,100.00
2022-09-01T01:57:04.509Z,100.00
2022-09-01T01:59:33.493Z,100.00
2022-09-01T02:02:04.073Z,100.00
2022-09-01T02:04:34.308Z,100.00
2022-09-01T02:07:12.148Z,100.00
2022-09-01T02:09:44.202Z,100.00
2022-09-01T02:12:12.511Z,100.00
2022-09-01T02:14:44.078Z,100.00
2022-09-01T02:17:12.337Z,100.00
2022-09-01T02:19:42.988Z,100.00
2022-09-01T02:22:11.630Z,100.00
2022-09-01T02:24:46.581Z,100.00
2022-09-01T02:27:15.776Z,100.00
2022-09-01T02:29:43.924Z,100.00
2022-09-01T02:32:12.128Z,100.00
2022-09-01T02:34:40.940Z,100.00
2022-09-01T02:37:08.653Z,100.00
2022-09-01T02:39:36.562Z,100.00
2022-09-01T02:42:04.909Z,100.00
2022-09-01T02:44:36.259Z,100.00
2022-09-01T02:47:09.921Z,100.00
2022-09-01T02:49:38.880Z,100.00
2022-09-01T02:52:08.129Z,100.00
2022-09-01T02:54:36.388Z,100.00
2022-09-01T02:57:04.629Z,100.00
2022-09-01T02:59:34.758Z,100.00
2022-09-01T03:02:03.355Z,100.00
2022-09-01T03:04:35.085Z,100.00
2022-09-01T03:07:06.413Z,100.00
2022-09-01T03:09:35.565Z,100.00
2022-09-01T03:12:07.183Z,100.00
2022-09-01T03:14:35.922Z,100.00
2022-09-01T03:17:03.917Z,100.00
2022-09-01T03:19:42.020Z,100.00
2022-09-01T03:22:10.172Z,100.00
2022-09-01T03:24:39.306Z,100.00
2022-09-01T03:27:07.929Z,100.00
2022-09-01T03:29:36.972Z,100.00
2022-09-01T03:32:05.960Z,100.00
2022-09-01T03:34:36.942Z,100.00
2022-09-01T03:37:08.072Z,100.00
2022-09-01T03:39:36.818Z,100.00
2022-09-01T03:42:05.503Z,100.00
2022-09-01T03:44:35.455Z,100.00
2022-09-01T03:47:03.692Z,100.00
2022-09-01T03:49:33.180Z,100.00
2022-09-01T03:52:01.383Z,100.00
2022-09-01T03:54:30.473Z,100.00
2022-09-01T03:57:00.083Z,100.00
2022-09-01T03:59:30.191Z,100.00
2022-09-01T04:02:00.484Z,100.00
2022-09-01T04:04:33.047Z,100.00
2022-09-01T04:07:01.843Z,100.00
2022-09-01T04:09:35.236Z,100.00
2022-09-01T04:12:09.115Z,100.00
2022-09-01T04:14:38.906Z,100.00
2022-09-01T04:17:30.340Z,100.00
2022-09-01T04:19:59.428Z,100.00
2022-09-01T04:22:39.931Z,100.00
2022-09-01T04:25:10.904Z,100.00
2022-09-01T04:27:40.598Z,100.00
2022-09-01T04:30:13.033Z,100.00
2022-09-01T04:32:47.490Z,100.00
2022-09-01T04:35:19.340Z,100.00
2022-09-01T04:37:49.445Z,100.00
2022-09-01T04:40:18.863Z,100.00
2022-09-01T04:42:48.058Z,100.00
2022-09-01T04:45:20.808Z,100.00
2022-09-01T04:47:50.988Z,100.00
2022-09-01T04:50:19.733Z,100.00
2022-09-01T04:53:07.409Z,100.00
2022-09-01T04:55:49.738Z,100.00
2022-09-01T04:58:20.055Z,100.00
2022-09-01T05:00:52.669Z,100.00
2022-09-01T05:03:24.184Z,100.00
2022-09-01T05:06:06.234Z,100.00
2022-09-01T05:08:35.518Z,100.00
2022-09-01T05:11:09.431Z,100.00
2022-09-01T05:13:45.561Z,100.00
2022-09-01T05:16:22.750Z,100.00
2022-09-01T05:18:55.928Z,100.00
2022-09-01T05:21:28.432Z,100.00
2022-09-01T05:24:00.871Z,100.00
2022-09-01T05:26:33.862Z,100.00
2022-09-01T05:29:10.912Z,100.00
2022-09-01T05:31:42.365Z,100.00
2022-09-01T05:34:13.998Z,100.00
2022-09-01T05:36:46.288Z,100.00
2022-09-01T05:39:14.923Z,100.00
2022-09-01T05:41:43.204Z,100.00
2022-09-01T05:44:14.184Z,100.00
2022-09-01T05:46:44.556Z,100.00
2022-09-01T05:49:14.042Z,100.00
2022-09-01T05:51:50.910Z,100.00
2022-09-01T05:54:27.509Z,100.00
2022-09-01T05:57:23.375Z,100.00
2022-09-01T05:59:54.274Z,100.00
2022-09-01T06:02:27.363Z,100.00
2022-09-01T06:04:57.745Z,100.00
2022-09-01T06:07:32.083Z,100.00
2022-09-01T06:10:02.345Z,100.00
2022-09-01T06:12:31.041Z,100.00
2022-09-01T06:15:00.192Z,100.00
2022-09-01T06:17:30.104Z,100.00
2022-09-01T06:20:02.063Z,100.00
2022-09-01T06:22:30.766Z,100.00
2022-09-01T06:25:02.675Z,100.00
2022-09-01T06:27:38.842Z,100.00
2022-09-01T06:30:15.136Z,100.00
2022-09-01T06:32:51.540Z,100.00
2022-09-01T06:35:20.471Z,100.00
2022-09-01T06:37:49.340Z,100.00
2022-09-01T06:40:38.756Z,100.00
2022-09-01T06:43:12.354Z,100.00
2022-09-01T06:45:55.134Z,100.00
2022-09-01T06:48:30.767Z,100.00
2022-09-01T06:51:16.012Z,100.00
2022-09-01T06:53:56.755Z,100.00
2022-09-01T06:56:33.456Z,100.00
2022-09-01T06:59:08.064Z,100.00
2022-09-01T07:01:39.606Z,100.00
2022-09-01T07:04:13.239Z,100.00
2022-09-01T07:10:17.806Z,100.00
2022-09-01T07:13:11.943Z,100.00
2022-09-01T07:18:38.302Z,100.00
2022-09-01T07:21:35.591Z,100.00
2022-09-01T07:24:13.471Z,100.00
2022-09-01T07:27:07.500Z,100.00
2022-09-01T07:29:37.067Z,100.00
2022-09-01T07:35:03.330Z,100.00
2022-09-01T07:42:31.866Z,100.00
2022-09-01T07:43:45.861Z,100.00
2022-09-01T07:46:40.321Z,100.00
2022-09-01T07:49:30.298Z,100.00
2022-09-01T07:52:04.900Z,100.00
2022-09-01T07:54:36.255Z,100.00
2022-09-01T07:57:05.542Z,100.00
2022-09-01T07:59:36.190Z,100.00
2022-09-01T08:02:18.468Z,100.00
2022-09-01T08:04:50.431Z,100.00
2022-09-01T08:07:20.718Z,100.00
2022-09-01T08:09:56.038Z,100.00
2022-09-01T08:12:31.085Z,100.00
2022-09-01T08:15:40.530Z,100.00
2022-09-01T08:17:51.920Z,100.00
2022-09-01T08:20:23.332Z,100.00
2022-09-01T08:23:06.598Z,100.00
2022-09-01T08:25:38.844Z,100.00
2022-09-01T08:28:08.048Z,100.00
2022-09-01T08:30:38.583Z,100.00
2022-09-01T08:33:10.778Z,100.00
2022-09-01T08:35:45.963Z,100.00
2022-09-01T08:38:14.950Z,100.00
2022-09-01T08:40:56.351Z,100.00
2022-09-01T08:43:37.872Z,100.00
2022-09-01T08:46:35.122Z,100.00
2022-09-01T08:49:26.560Z,100.00
2022-09-01T08:52:34.513Z,100.00
2022-09-01T08:55:32.345Z,100.00
2022-09-01T08:58:01.434Z,100.00
2022-09-01T09:00:37.054Z,100.00
2022-09-01T09:03:41.592Z,100.00
2022-09-01T09:06:25.833Z,100.00
2022-09-01T09:08:58.392Z,100.00
2022-09-01T09:12:10.009Z,100.00
2022-09-01T09:15:27.957Z,100.00
2022-09-01T09:18:39.944Z,100.00
2022-09-01T09:21:31.506Z,100.00
2022-09-01T09:24:29.185Z,99.43
2022-09-01T09:27:09.760Z,97.70
2022-09-01T09:29:39.230Z,97.82
2022-09-01T09:32:39.773Z,98.56
2022-09-01T09:35:31.997Z,99.29
2022-09-01T09:38:29.611Z,98.54
2022-09-01T09:41:25.463Z,100.00
2022-09-01T09:44:08.482Z,99.41
2022-09-01T09:46:45.976Z,99.32
2022-09-01T09:49:35.110Z,96.57
2022-09-01T09:52:19.255Z,96.72
2022-09-01T09:55:04.634Z,95.16
2022-09-01T09:57:33.656Z,97.19
2022-09-01T10:00:24.004Z,95.93
2022-09-01T10:03:07.876Z,95.73
2022-09-01T10:05:44.781Z,93.89
2022-09-01T10:08:45.487Z,92.08
2022-09-01T10:11:35.327Z,93.65
2022-09-01T10:14:47.959Z,90.22
2022-09-01T10:17:26.403Z,91.01
2022-09-01T10:20:07.980Z,92.28
2022-09-01T10:22:42.060Z,89.86
2022-09-01T10:25:32.498Z,88.21
2022-09-01T10:28:20.951Z,90.58
2022-09-01T10:30:51.834Z,89.69
2022-09-01T10:33:22.664Z,88.78
2022-09-01T10:35:54.160Z,89.98
2022-09-01T10:38:28.774Z,86.40
2022-09-01T10:41:15.848Z,85.77
2022-09-01T10:43:49.004Z,82.72
2022-09-01T10:46:24.803Z,85.04
2022-09-01T10:49:04.456Z,85.97
2022-09-01T10:51:51.575Z,86.11
2022-09-01T10:54:55.741Z,85.12
2022-09-01T10:57:51.080Z,81.45
2022-09-01T11:00:41.469Z,83.47
2022-09-01T11:06:13.585Z,82.88
2022-09-01T11:08:50.957Z,81.27
2022-09-01T11:11:49.675Z,82.42
2022-09-01T11:14:23.029Z,80.56
2022-09-01T11:17:15.830Z,80.63
2022-09-01T11:20:11.427Z,81.21
2022-09-01T11:22:59.192Z,81.12
2022-09-01T11:25:39.354Z,81.30
2022-09-01T11:28:18.022Z,81.03
2022-09-01T11:31:08.726Z,80.00
2022-09-01T11:34:10.409Z,80.30
2022-09-01T11:36:51.159Z,78.59
2022-09-01T11:39:22.127Z,77.74
2022-09-01T11:42:07.604Z,76.40
2022-09-01T11:44:48.433Z,74.95
2022-09-01T11:47:29.589Z,73.74
2022-09-01T11:50:02.259Z,75.98
2022-09-01T11:52:36.130Z,75.46
2022-09-01T11:55:07.936Z,70.79
2022-09-01T11:57:39.166Z,73.05
2022-09-01T12:00:13.004Z,72.19
2022-09-01T12:02:51.544Z,74.29
2022-09-01T12:05:39.277Z,70.86
2022-09-01T12:08:15.954Z,70.26
2022-09-01T12:10:49.164Z,70.35
2022-09-01T12:13:19.721Z,69.67
2022-09-01T12:16:17.534Z,69.04
2022-09-01T12:18:51.623Z,68.91
2022-09-01T12:21:34.902Z,67.40
2022-09-01T12:24:32.741Z,68.30
2022-09-01T12:27:01.392Z,68.34
2022-09-01T12:29:34.708Z,68.93
2022-09-01T12:32:03.480Z,67.86
2022-09-01T12:34:34.215Z,67.73
2022-09-01T12:37:08.998Z,70.60
2022-09-01T12:39:42.503Z,69.68
2022-09-01T12:42:21.391Z,68.71
2022-09-01T12:44:51.454Z,67.66
2022-09-01T12:47:35.842Z,67.88
2022-09-01T12:50:05.788Z,66.19
2022-09-01T12:52:36.867Z,68.39
2022-09-01T12:55:06.325Z,66.85
2022-09-01T12:57:41.345Z,67.18
2022-09-01T13:00:10.740Z,69.04
2022-09-01T13:02:42.153Z,68.13
2022-09-01T13:05:32.728Z,66.83
2022-09-01T13:08:11.982Z,69.10
2022-09-01T13:10:45.359Z,67.39
2022-09-01T13:13:16.258Z,66.08
2022-09-01T13:15:51.807Z,66.50
2022-09-01T13:18:23.708Z,66.48
2022-09-01T13:20:53.493Z,66.29
2022-09-01T13:23:24.380Z,67.43
2022-09-01T13:25:54.192Z,67.81
2022-09-01T13:28:28.533Z,65.48
2022-09-01T13:34:21.843Z,65.52
2022-09-01T13:36:48.479Z,64.96
2022-09-01T13:39:20.473Z,64.81
2022-09-01T13:41:50.194Z,65.81
2022-09-01T13:44:20.344Z,65.98
2022-09-01T13:50:05.375Z,65.97
2022-09-01T13:52:25.728Z,67.65
2022-09-01T13:54:55.999Z,66.85
2022-09-01T13:57:24.677Z,66.73
2022-09-01T13:59:55.482Z,68.93
2022-09-01T14:02:27.217Z,68.84
2022-09-01T14:04:57.065Z,69.33
2022-09-01T14:07:24.818Z,69.60
2022-09-01T14:09:53.695Z,67.84
2022-09-01T14:12:25.032Z,69.72
2022-09-01T14:15:20.754Z,69.44
2022-09-01T14:18:15.217Z,68.11
2022-09-01T14:21:06.004Z,72.46
2022-09-01T14:23:55.403Z,68.00
2022-09-01T14:26:44.493Z,70.29
2022-09-01T14:29:33.601Z,69.64
2022-09-01T14:32:27.363Z,70.79
2022-09-01T14:35:19.889Z,70.36
2022-09-01T14:37:56.369Z,69.17
2022-09-01T14:40:30.293Z,69.71
2022-09-01T14:43:01.534Z,71.00
2022-09-01T14:45:30.644Z,69.89
2022-09-01T14:48:01.724Z,69.12
2022-09-01T14:50:35.800Z,69.37
2022-09-01T14:53:05.247Z,65.93
2022-09-01T14:55:33.864Z,68.39
2022-09-01T14:58:02.092Z,66.53
2022-09-01T15:00:31.704Z,65.43
2022-09-01T15:02:59.779Z,64.60
2022-09-01T15:05:27.901Z,63.90
2022-09-01T15:07:56.756Z,64.37
2022-09-01T15:10:26.348Z,65.61
2022-09-01T15:12:57.360Z,62.95
2022-09-01T15:15:26.722Z,63.19
2022-09-01T15:17:55.470Z,64.14
2022-09-01T15:20:42.750Z,64.72
2022-09-01T15:23:13.492Z,64.18
2022-09-01T15:25:41.785Z,64.53
2022-09-01T15:28:10.021Z,64.02
2022-09-01T15:30:40.110Z,63.56
2022-09-01T15:33:13.351Z,63.66
2022-09-01T15:35:45.094Z,63.33
2022-09-01T15:38:17.778Z,64.10
2022-09-01T15:40:55.456Z,62.86
2022-09-01T15:43:28.138Z,63.79
2022-09-01T15:45:59.745Z,65.47
2022-09-01T15:48:29.581Z,67.09
2022-09-01T15:51:22.349Z,67.31
2022-09-01T15:54:00.079Z,67.51
2022-09-01T15:56:28.856Z,67.41
2022-09-01T15:59:01.572Z,67.10
2022-09-01T16:01:34.572Z,67.47
2022-09-01T16:04:05.193Z,67.37
2022-09-01T16:06:35.563Z,68.73
2022-09-01T16:09:06.042Z,68.62
2022-09-01T16:11:36.758Z,69.61
2022-09-01T16:14:05.632Z,68.38
2022-09-01T16:17:06.312Z,70.20
2022-09-01T16:19:46.365Z,68.75
2022-09-01T16:22:40.833Z,68.58
2022-09-01T16:25:15.701Z,68.59
2022-09-01T16:27:46.407Z,67.57
2022-09-01T16:30:22.376Z,69.11
2022-09-01T16:32:50.920Z,70.38
2022-09-01T16:35:23.313Z,70.32
2022-09-01T16:38:14.809Z,71.15
2022-09-01T16:41:30.752Z,70.37
2022-09-01T16:44:36.394Z,71.24
2022-09-01T16:47:48.705Z,74.76
2022-09-01T16:50:29.414Z,73.58
2022-09-01T16:53:25.973Z,75.02
2022-09-01T16:56:08.058Z,73.87
2022-09-01T16:58:52.289Z,73.46
2022-09-01T17:01:57.564Z,71.96
2022-09-01T17:04:41.006Z,73.25
2022-09-01T17:07:14.212Z,72.96
2022-09-01T17:09:46.383Z,73.43
2022-09-01T17:12:33.691Z,75.28
2022-09-01T17:15:10.283Z,74.68
2022-09-01T17:17:44.571Z,73.73
2022-09-01T17:20:15.813Z,73.66
2022-09-01T17:22:52.380Z,74.00
2022-09-01T17:25:32.869Z,74.01
2022-09-01T17:28:08.653Z,74.72
2022-09-01T17:30:56.270Z,74.21
2022-09-01T17:33:42.179Z,75.28
2022-09-01T17:36:47.448Z,75.73
2022-09-01T17:39:18.986Z,75.91
2022-09-01T17:42:07.715Z,77.09
2022-09-01T17:45:13.205Z,78.17
2022-09-01T17:48:21.507Z,78.62
2022-09-01T17:51:32.754Z,78.87
2022-09-01T17:54:14.593Z,79.23
2022-09-01T17:57:00.377Z,79.89
2022-09-01T17:59:50.501Z,79.94
2022-09-01T18:02:33.858Z,80.88
2022-09-01T18:05:11.955Z,82.13
2022-09-01T18:08:07.259Z,82.28
2022-09-01T18:10:39.438Z,83.27
2022-09-01T18:13:36.189Z,83.31
2022-09-01T18:16:20.163Z,83.41
2022-09-01T18:18:51.855Z,83.56
2022-09-01T18:21:25.997Z,84.07
2022-09-01T18:24:08.434Z,84.12
2022-09-01T18:26:39.334Z,85.11
2022-09-01T18:29:07.881Z,85.00
2022-09-01T18:32:28.933Z,85.11
2022-09-01T18:35:31.755Z,84.67
2022-09-01T18:38:12.724Z,84.98
2022-09-01T18:41:11.555Z,85.83
2022-09-01T18:43:45.161Z,85.56
2022-09-01T18:46:39.615Z,85.61
2022-09-01T18:49:51.013Z,85.35
2022-09-01T18:52:32.698Z,86.50
2022-09-01T18:55:26.346Z,87.60
2022-09-01T18:58:00.494Z,87.04
2022-09-01T19:00:52.216Z,88.07
2022-09-01T19:03:58.347Z,90.67
2022-09-01T19:06:50.709Z,90.13
2022-09-01T19:09:28.676Z,88.96
2022-09-01T19:12:26.648Z,89.74
2022-09-01T19:15:08.715Z,90.55
2022-09-01T19:18:25.413Z,91.50
2022-09-01T19:21:16.078Z,91.98
2022-09-01T19:23:59.620Z,92.11
2022-09-01T19:26:42.782Z,90.76
2022-09-01T19:29:32.197Z,92.03
2022-09-01T19:32:09.463Z,91.75
2022-09-01T19:34:53.596Z,92.25
2022-09-01T19:38:19.176Z,93.09
2022-09-01T19:40:54.385Z,91.21
2022-09-01T19:43:23.909Z,90.67
2022-09-01T19:46:10.123Z,90.62
2022-09-01T19:49:13.128Z,91.29
2022-09-01T19:52:04.903Z,91.17
2022-09-01T19:55:00.721Z,92.23
2022-09-01T19:57:33.243Z,93.54
2022-09-01T20:00:03.543Z,93.59
2022-09-01T20:02:50.595Z,94.26
2022-09-01T20:05:48.078Z,96.26
2022-09-01T20:08:57.004Z,96.12
2022-09-01T20:11:59.126Z,95.98
2022-09-01T20:14:45.530Z,97.15
2022-09-01T20:17:29.824Z,97.78
2022-09-01T20:20:09.942Z,98.61
2022-09-01T20:22:41.239Z,99.63
2022-09-01T20:25:16.518Z,100.00
2022-09-01T20:28:02.148Z,100.00
2022-09-01T20:30:43.070Z,100.00
2022-09-01T20:33:16.188Z,100.00
2022-09-01T20:35:46.006Z,100.00
2022-09-01T20:39:15.521Z,100.00
2022-09-01T20:42:19.769Z,100.00
2022-09-01T20:45:00.113Z,100.00
2022-09-01T20:47:31.635Z,100.00
2022-09-01T20:50:02.469Z,100.00
2022-09-01T20:52:44.916Z,100.00
2022-09-01T20:55:39.819Z,100.00
2022-09-01T20:58:47.031Z,100.00
2022-09-01T21:01:43.451Z,100.00
2022-09-01T21:04:18.467Z,100.00
2022-09-01T21:07:20.541Z,100.00
2022-09-01T21:10:23.084Z,100.00
2022-09-01T21:13:12.445Z,100.00
2022-09-01T21:16:00.219Z,100.00
2022-09-01T21:19:07.516Z,100.00
2022-09-01T21:22:06.467Z,100.00
2022-09-01T21:24:35.904Z,100.00
2022-09-01T21:27:08.654Z,100.00
2022-09-01T21:29:59.610Z,100.00
2022-09-01T21:32:30.690Z,100.00
2022-09-01T21:34:59.224Z,100.00
2022-09-01T21:37:29.024Z,100.00
2022-09-01T21:39:58.242Z,100.00
2022-09-01T21:42:54.590Z,100.00
2022-09-01T21:45:23.485Z,100.00
2022-09-01T21:47:52.481Z,100.00
2022-09-01T21:50:24.333Z,100.00
2022-09-01T21:52:52.943Z,100.00
2022-09-01T21:55:23.715Z,100.00
2022-09-01T21:57:52.556Z,100.00
2022-09-01T22:00:25.681Z,100.00
2022-09-01T22:02:54.953Z,100.00
2022-09-01T22:05:26.166Z,100.00
2022-09-01T22:07:55.997Z,100.00
2022-09-01T22:10:26.805Z,100.00
2022-09-01T22:12:56.277Z,100.00
2022-09-01T22:15:26.309Z,100.00
2022-09-01T22:17:57.598Z,100.00
2022-09-01T22:20:26.204Z,100.00
2022-09-01T22:23:01.788Z,100.00
2022-09-01T22:25:32.636Z,100.00
2022-09-01T22:28:04.042Z,100.00
2022-09-01T22:30:32.796Z,100.00
2022-09-01T22:33:02.146Z,100.00
2022-09-01T22:35:30.456Z,100.00
2022-09-01T22:37:58.587Z,100.00
2022-09-01T22:40:26.843Z,100.00
2022-09-01T22:42:55.043Z,100.00
2022-09-01T22:45:23.235Z,100.00
2022-09-01T22:47:51.347Z,100.00
2022-09-01T22:50:19.667Z,100.00
2022-09-01T22:52:47.908Z,100.00
2022-09-01T22:55:16.447Z,100.00
2022-09-01T22:57:44.596Z,100.00
2022-09-01T23:00:13.304Z,100.00
2022-09-01T23:02:41.531Z,100.00
2022-09-01T23:05:09.967Z,100.00
2022-09-01T23:07:39.713Z,100.00
2022-09-01T23:10:08.993Z,100.00
2022-09-01T23:12:37.437Z,100.00
2022-09-01T23:15:06.301Z,100.00
2022-09-01T23:17:36.752Z,100.00
2022-09-01T23:20:13.010Z,100.00
2022-09-01T23:22:43.645Z,100.00
2022-09-01T23:25:14.417Z,100.00
2022-09-01T23:27:42.808Z,100.00
2022-09-01T23:30:13.930Z,100.00
2022-09-01T23:32:42.213Z,100.00
2022-09-01T23:35:10.983Z,100.00
2022-09-01T23:37:39.298Z,100.00
2022-09-01T23:40:08.305Z,100.00
2022-09-01T23:42:36.636Z,100.00
2022-09-01T23:45:05.402Z,100.00
2022-09-01T23:47:33.778Z,100.00
2022-09-01T23:50:02.764Z,100.00
2022-09-01T23:52:31.006Z,100.00
2022-09-01T23:54:59.245Z,100.00
2022-09-01T23:57:27.398Z,100.00
2022-09-01T23:59:58.491Z,100.00
